Aviation Digital Data Service (ADDS)

Output produced by TAFs form (0126 UTC 23 November 2017)
found at http://www.aviationweather.gov/adds/tafs/
 
KCWA 222325Z 2300/2324 21006KT P6SM SCT040 OVC080 
     TEMPO 2300/2304 -SN BKN040 
     FM230400 21006KT 4SM -SN SCT020 OVC035 
     TEMPO 2304/2306 2SM -SN BKN020 
     FM230600 20005KT 6SM -SN BR SCT020 OVC035 
     TEMPO 2306/2308 -FZRA 
     FM230800 22003KT P6SM BKN040 
     FM231200 27006KT P6SM SCT250 AMD LTD TO CLD VIS AND WIND 2304/2312
       
KATW 222325Z 2300/2324 21007KT P6SM OVC090 
     FM230500 22008KT 6SM -SN SCT025 OVC040 
     TEMPO 2307/2309 6SM -FZRA BR 
     FM230900 22007KT P6SM BKN050 
     FM231300 25008KT P6SM SCT250
       
KGRB 222325Z 2300/2324 21006KT P6SM OVC090 
     FM230500 22007KT 6SM -SN SCT025 OVC040 
     TEMPO 2307/2309 6SM -FZRA BR 
     FM230900 22006KT P6SM BKN050 
     FM231300 25007KT P6SM SCT250
       
KMSN 222333Z 2300/2324 20006KT P6SM SCT080 OVC150 
     FM230700 20007KT P6SM OVC060 
     FM230800 20008KT P6SM BKN070 
     FM231200 21006KT P6SM FEW060 SCT110 
     FM231600 25006KT P6SM SKC 
     FM231900 27006KT P6SM SKC
       
KMKE 222333Z 2300/2406 22005KT P6SM SCT110 BKN200 
     FM231100 21008KT P6SM BKN060 
     FM231400 23008KT P6SM SCT060 
     FM240100 VRB04KT P6SM FEW250 
     FM240500 22005KT P6SM FEW250